createdAt,value
2023-01-08T15:58:17.982Z,20.70
2023-01-08T16:00:47.053Z,19.60
2023-01-08T16:03:14.625Z,21.70
2023-01-08T16:05:44.270Z,22.30
2023-01-08T16:08:13.130Z,21.50
2023-01-08T16:10:40.249Z,21.00
2023-01-08T16:15:34.457Z,23.50
2023-01-08T16:20:30.732Z,21.80
2023-01-08T16:22:57.971Z,24.60
2023-01-08T16:25:27.126Z,21.50
2023-01-08T16:27:56.517Z,25.50
2023-01-08T16:30:26.067Z,24.30
2023-01-08T16:32:55.323Z,24.40
2023-01-08T16:35:25.083Z,23.80
2023-01-08T16:37:52.685Z,24.10
2023-01-08T16:40:19.843Z,22.60
2023-01-08T16:42:50.659Z,23.90
2023-01-08T16:45:17.616Z,23.70
2023-01-08T16:47:45.909Z,25.00
2023-01-08T16:50:16.434Z,24.60
2023-01-08T16:52:43.758Z,23.80
2023-01-08T16:57:39.583Z,25.50
2023-01-08T17:02:37.193Z,25.90
2023-01-08T17:05:07.482Z,22.10
2023-01-08T17:07:38.740Z,23.40
2023-01-08T17:10:06.425Z,25.20
2023-01-08T17:12:36.973Z,24.80
2023-01-08T17:15:04.855Z,25.40
2023-01-08T17:17:34.598Z,24.90
2023-01-08T17:20:01.689Z,22.70
2023-01-08T17:22:30.997Z,23.70
2023-01-08T17:27:28.579Z,23.50
2023-01-08T17:29:58.549Z,24.10
2023-01-08T17:32:32.436Z,21.80
2023-01-08T17:34:59.687Z,24.20
2023-01-08T17:37:30.233Z,25.70
2023-01-08T17:40:00.721Z,24.10
2023-01-08T17:42:29.614Z,25.80
2023-01-08T17:45:05.753Z,24.40
2023-01-08T17:47:33.763Z,25.70
2023-01-08T17:50:07.809Z,27.00
2023-01-08T17:52:37.436Z,24.60
2023-01-08T17:55:07.611Z,25.10
2023-01-08T17:57:34.653Z,24.70
2023-01-08T18:00:02.415Z,25.80
2023-01-08T18:02:32.623Z,25.20
2023-01-08T18:04:59.913Z,23.30
2023-01-08T18:07:28.556Z,26.10
2023-01-08T18:09:59.555Z,27.50
2023-01-08T18:12:28.836Z,28.20
2023-01-08T18:14:55.838Z,26.80
2023-01-08T18:19:49.662Z,27.50
2023-01-08T18:22:20.675Z,26.90
2023-01-08T18:24:50.015Z,24.50
2023-01-08T18:27:17.674Z,25.70
2023-01-08T18:29:45.127Z,25.80
2023-01-08T18:32:14.538Z,24.90
2023-01-08T18:34:41.551Z,25.50
2023-01-08T18:37:08.660Z,26.70
2023-01-08T18:39:36.297Z,26.80
2023-01-08T18:42:25.616Z,26.60
2023-01-08T18:44:56.172Z,27.20
2023-01-08T18:47:24.949Z,26.10
2023-01-08T18:50:00.908Z,27.30
2023-01-08T18:52:31.307Z,28.70
2023-01-08T18:55:01.044Z,26.70
2023-01-08T18:57:30.904Z,26.00
2023-01-08T18:59:59.671Z,26.70
2023-01-08T19:02:28.121Z,28.20
2023-01-08T19:04:56.627Z,24.40
2023-01-08T19:07:26.348Z,24.80
2023-01-08T19:10:02.533Z,26.30
2023-01-08T19:12:33.223Z,27.10
2023-01-08T19:15:03.045Z,28.20
2023-01-08T19:17:33.622Z,26.00
2023-01-08T19:20:03.040Z,25.00
2023-01-08T19:22:33.967Z,27.60
2023-01-08T19:25:04.445Z,28.50
2023-01-08T19:27:35.132Z,25.50
2023-01-08T19:30:06.456Z,27.50
2023-01-08T19:32:33.605Z,27.60
2023-01-08T19:35:03.585Z,26.80
2023-01-08T19:37:37.365Z,27.80
2023-01-08T19:40:07.639Z,27.00
2023-01-08T19:43:18.164Z,27.00
2023-01-08T19:45:47.101Z,25.70
2023-01-08T19:48:18.095Z,27.50
2023-01-08T19:50:49.027Z,27.20
2023-01-08T19:53:18.332Z,26.60
2023-01-08T19:55:47.028Z,26.00
2023-01-08T19:58:19.289Z,26.20
2023-01-08T20:00:48.320Z,27.00
2023-01-08T20:03:29.956Z,28.00
2023-01-08T20:05:59.489Z,26.80
2023-01-08T20:08:28.588Z,27.70
2023-01-08T20:11:09.005Z,26.00
2023-01-08T20:13:39.690Z,29.60
2023-01-08T20:16:12.806Z,25.90
2023-01-08T20:18:41.996Z,25.80
2023-01-08T20:21:14.337Z,27.50
2023-01-08T20:23:44.526Z,26.80
2023-01-08T20:26:18.107Z,26.80
2023-01-08T20:28:47.667Z,27.60
2023-01-08T20:31:19.233Z,25.00
2023-01-08T20:33:49.615Z,26.60
2023-01-08T20:36:23.026Z,25.20
2023-01-08T20:38:56.045Z,24.00
2023-01-08T20:41:26.644Z,25.00
2023-01-08T20:43:56.309Z,26.70
2023-01-08T20:46:28.698Z,23.50
2023-01-08T20:48:56.904Z,25.30
2023-01-08T20:51:23.853Z,22.70
2023-01-08T20:53:53.421Z,23.40
2023-01-08T20:56:21.585Z,21.50
2023-01-08T20:58:51.021Z,25.10
2023-01-08T21:01:21.514Z,22.70
2023-01-08T21:03:53.491Z,23.90
2023-01-08T21:06:26.408Z,21.90
2023-01-08T21:08:55.799Z,23.00
2023-01-08T21:11:23.125Z,22.50
2023-01-08T21:13:53.814Z,21.10
2023-01-08T21:16:26.993Z,20.40
2023-01-08T21:18:54.465Z,22.40
2023-01-08T21:21:28.768Z,21.20
2023-01-08T21:23:56.428Z,21.80
2023-01-08T21:26:25.941Z,20.40
2023-01-08T21:28:53.070Z,21.90
2023-01-08T21:33:48.724Z,18.30
2023-01-08T21:36:17.502Z,19.80
2023-01-08T21:38:44.543Z,18.50
2023-01-08T21:44:20.347Z,17.80
2023-01-08T21:46:47.228Z,18.70
2023-01-08T21:49:14.067Z,18.10
2023-01-08T21:51:59.524Z,18.00
2023-01-08T21:54:26.359Z,16.90
2023-01-08T21:56:53.079Z,16.80
2023-01-08T21:59:20.714Z,16.20
2023-01-08T22:01:47.598Z,20.10
2023-01-08T22:04:16.002Z,16.60
2023-01-08T22:06:42.932Z,15.00
2023-01-08T22:09:11.684Z,16.00
2023-01-08T22:11:38.378Z,17.20
2023-01-08T22:14:05.259Z,16.50
2023-01-08T22:16:32.056Z,15.60
2023-01-08T22:18:58.875Z,15.30
2023-01-08T22:21:25.684Z,15.50
2023-01-08T22:23:52.608Z,17.20
2023-01-08T22:26:20.261Z,15.50
2023-01-08T22:28:47.224Z,14.90
2023-01-08T22:33:41.409Z,14.70
2023-01-08T22:36:10.237Z,13.80
2023-01-08T22:38:37.513Z,15.90
2023-01-08T22:41:04.587Z,15.60
2023-01-08T22:43:31.391Z,14.70
2023-01-08T22:45:59.261Z,15.30
2023-01-08T22:48:26.463Z,14.30
2023-01-08T22:50:53.220Z,14.00
2023-01-08T22:53:20.138Z,15.40
2023-01-08T22:55:47.288Z,14.50
2023-01-08T22:58:17.508Z,14.00
2023-01-08T23:00:44.381Z,15.20
2023-01-08T23:03:11.301Z,14.70
2023-01-08T23:05:37.997Z,15.30
2023-01-08T23:08:05.061Z,15.10
2023-01-08T23:10:31.930Z,14.30
2023-01-08T23:12:58.617Z,17.00
2023-01-08T23:15:25.426Z,14.80
2023-01-08T23:17:52.900Z,14.80
2023-01-08T23:20:20.680Z,14.10
2023-01-08T23:22:47.602Z,14.50
2023-01-08T23:25:14.776Z,14.50
2023-01-08T23:30:08.801Z,15.30
2023-01-08T23:32:35.549Z,14.10
2023-01-08T23:35:02.326Z,14.70
2023-01-08T23:37:29.085Z,15.70
2023-01-08T23:39:55.804Z,14.50
2023-01-08T23:42:22.579Z,15.00
2023-01-08T23:44:49.740Z,16.30
2023-01-08T23:47:16.531Z,14.10
2023-01-08T23:49:43.271Z,14.00
2023-01-08T23:52:10.086Z,14.70
2023-01-08T23:54:36.889Z,17.20
2023-01-08T23:57:06.138Z,17.20
2023-01-08T23:59:33.062Z,15.20
